KLFT/LFT METAR and TAF weather

Enter ICAO airport designator
Station Type Date Time Source
KLFT METAR 2019/08/21 01:53 UTC NOAA

KLFT 210153Z 00000KT 10SM CLR 26/24 A3002 RMK AO2 SLP164 T02610244


Station Type Date Time Source
KLFT Decoded METAR 2019/08/21 01:53 UTC NOAA

Station name not available
Aug 20, 2019 - 09:53 PM EDT / 2019.08.21 0153 UTC
Wind: Calm:0
Visibility: 10 mile(s):0
Sky conditions: clear
Temperature: 79.0 F (26.1 C)
Dew Point: 75.9 F (24.4 C)
Relative Humidity: 90%
Pressure (altimeter): 30.02 in. Hg (1016 hPa)
ob: KLFT 210153Z 00000KT 10SM CLR 26/24 A3002 RMK AO2 SLP164 T02610244
cycle: 2

Station Type Date Time Source
KLFT TAF 2019/08/20 18:27 UTC NOAA

TAF KLFT 201724Z 2018/2118 VRB05KT P6SM VCTS SCT025CB SCT250
TEMPO 2018/2022 3SM TSRA BKN025CB
FM210100 18003KT P6SM FEW030 SCT250

Example: see airport list